PWSweather.com
Personal Weather Stations
Station Observations
IHESSENR7
ReinhardshagenDE

ReinhardshagenDE

Lat: 51.48, Lon: 9.62

Elevation: 120

Station Type: Davis VantagePro

http://www.rhgwetter.de/

High Low Average
Temperature 61.6°F16.4°C 50.1°F10.1°C 56.9°F13.8°C
Dew Point 53.9°F12.2°C 47.4°F8.6°C 50.3°F10.2°C
Winds 14.0 mph 22.5 kmh Calm Calm 3.0 mph SSW4.8 kmh SSW
Wind Gusts 22.0 mph35.4 kmh -- 10.0 mph16.1 kmh
Humidity 91% 63% 79%
Pressure 30.26 in1024.7 mb 29.94 in1013.9 mb -
Precipitation 0.00 in0.0 mm - -
Hour Temp Dew Point Humidity Winds Wind Gusts Pressure Precip Precip Rate Daily Precip Total
12:00 AM 56.6°F13.7°C 52.4°F11.3°C 86% 6.0 mph SE9.7 kmh SE 12.0 mph19.3 kmh 29.98 in1015.2 mb 0.00 in0.0 mm 0.00 in0.0 mm 0.00 in0.0 mm
12:30 AM 56.3°F13.5°C 52.1°F11.2°C 86% 6.0 mph SE9.7 kmh SE 12.0 mph19.3 kmh 29.98 in1015.2 mb 0.00 in0.0 mm 0.00 in0.0 mm 0.00 in0.0 mm
01:00 AM 56.3°F13.5°C 52.1°F11.2°C 86% 4.0 mph S6.4 kmh S 13.0 mph20.9 kmh 29.96 in1014.6 mb 0.00 in0.0 mm 0.00 in0.0 mm 0.00 in0.0 mm
01:30 AM 56.5°F13.6°C 52.3°F11.3°C 86% 6.0 mph SSE9.7 kmh SSE 12.0 mph19.3 kmh 29.96 in1014.6 mb 0.00 in0.0 mm 0.00 in0.0 mm 0.00 in0.0 mm
02:00 AM 56.2°F13.4°C 52.3°F11.3°C 87% 6.0 mph SE9.7 kmh SE 11.0 mph17.7 kmh 29.95 in1014.2 mb 0.00 in0.0 mm 0.00 in0.0 mm 0.00 in0.0 mm
02:30 AM 56.1°F13.4°C 52.5°F11.4°C 88% 6.0 mph SE9.7 kmh SE 15.0 mph24.1 kmh 29.95 in1014.2 mb 0.00 in0.0 mm 0.00 in0.0 mm 0.00 in0.0 mm
03:00 AM 56.0°F13.3°C 52.4°F11.3°C 88% 9.0 mph SE14.5 kmh SE 12.0 mph19.3 kmh 29.94 in1013.9 mb 0.00 in0.0 mm 0.00 in0.0 mm 0.00 in0.0 mm
03:30 AM 55.7°F13.2°C 52.5°F11.4°C 89% 5.0 mph SE8.0 kmh SE 12.0 mph19.3 kmh 29.94 in1013.9 mb 0.00 in0.0 mm 0.00 in0.0 mm 0.00 in0.0 mm
04:00 AM 56.1°F13.4°C 52.9°F11.6°C 89% 4.0 mph S6.4 kmh S 12.0 mph19.3 kmh 29.94 in1013.9 mb 0.00 in0.0 mm 0.00 in0.0 mm 0.00 in0.0 mm
04:30 AM 56.4°F13.6°C 52.8°F11.6°C 88% 3.0 mph SE4.8 kmh SE 11.0 mph17.7 kmh 29.94 in1013.9 mb 0.00 in0.0 mm 0.00 in0.0 mm 0.00 in0.0 mm
05:00 AM 56.3°F13.5°C 53.0°F11.7°C 89% 5.0 mph SE8.0 kmh SE 11.0 mph17.7 kmh 29.94 in1013.9 mb 0.00 in0.0 mm 0.00 in0.0 mm 0.00 in0.0 mm
05:30 AM 56.6°F13.7°C 53.3°F11.8°C 89% 6.0 mph SW9.7 kmh SW 11.0 mph17.7 kmh 29.95 in1014.2 mb 0.00 in0.0 mm 0.00 in0.0 mm 0.00 in0.0 mm
06:00 AM 57.0°F13.9°C 53.7°F12.1°C 89% 2.0 mph S3.2 kmh S 11.0 mph17.7 kmh 29.96 in1014.6 mb 0.00 in0.0 mm 0.00 in0.0 mm 0.00 in0.0 mm
06:30 AM 56.8°F13.8°C 53.5°F11.9°C 89% 2.0 mph SSW3.2 kmh SSW 12.0 mph19.3 kmh 29.97 in1014.9 mb 0.00 in0.0 mm 0.00 in0.0 mm 0.00 in0.0 mm
07:00 AM 57.1°F13.9°C 53.5°F11.9°C 88% 5.0 mph S8.0 kmh S 13.0 mph20.9 kmh 29.98 in1015.2 mb 0.00 in0.0 mm 0.00 in0.0 mm 0.00 in0.0 mm
07:30 AM 57.4°F14.1°C 53.5°F11.9°C 87% Calm Calm 10.0 mph16.1 kmh 30.00 in1015.9 mb 0.00 in0.0 mm 0.00 in0.0 mm 0.00 in0.0 mm
08:00 AM 57.5°F14.2°C 53.9°F12.2°C 88% Calm Calm 9.0 mph14.5 kmh 30.01 in1016.3 mb 0.00 in0.0 mm 0.00 in0.0 mm 0.00 in0.0 mm
08:30 AM 58.2°F14.6°C 52.7°F11.5°C 82% Calm Calm 15.0 mph24.1 kmh 30.03 in1016.9 mb 0.00 in0.0 mm 0.00 in0.0 mm 0.00 in0.0 mm
09:00 AM 58.1°F14.5°C 50.5°F10.3°C 76% 12.0 mph NW19.3 kmh NW 20.0 mph32.2 kmh 30.05 in1017.6 mb 0.00 in0.0 mm 0.00 in0.0 mm 0.00 in0.0 mm
09:30 AM 58.3°F14.6°C 49.6°F9.8°C 73% 9.0 mph WNW14.5 kmh WNW 19.0 mph30.6 kmh 30.07 in1018.3 mb 0.00 in0.0 mm 0.00 in0.0 mm 0.00 in0.0 mm
10:00 AM 58.7°F14.8°C 49.6°F9.8°C 72% 3.0 mph W4.8 kmh W 21.0 mph33.8 kmh 30.08 in1018.6 mb 0.00 in0.0 mm 0.00 in0.0 mm 0.00 in0.0 mm
10:30 AM 58.9°F14.9°C 49.1°F9.5°C 70% 9.0 mph WSW14.5 kmh WSW 15.0 mph24.1 kmh 30.09 in1019.0 mb 0.00 in0.0 mm 0.00 in0.0 mm 0.00 in0.0 mm
11:00 AM 59.5°F15.3°C 48.1°F8.9°C 66% 7.0 mph W11.3 kmh W 17.0 mph27.4 kmh 30.11 in1019.6 mb 0.00 in0.0 mm 0.00 in0.0 mm 0.00 in0.0 mm
11:30 AM 59.6°F15.3°C 48.2°F9.0°C 66% 14.0 mph W22.5 kmh W 22.0 mph35.4 kmh 30.12 in1020.0 mb 0.00 in0.0 mm 0.00 in0.0 mm 0.00 in0.0 mm
12:00 PM 59.8°F15.4°C 48.8°F9.3°C 67% 3.0 mph NW4.8 kmh NW 16.0 mph25.7 kmh 30.13 in1020.3 mb 0.00 in0.0 mm 0.00 in0.0 mm 0.00 in0.0 mm
12:30 PM 60.6°F15.9°C 48.3°F9.1°C 64% Calm Calm 13.0 mph20.9 kmh 30.14 in1020.7 mb 0.00 in0.0 mm 0.00 in0.0 mm 0.00 in0.0 mm
01:00 PM 60.2°F15.7°C 47.9°F8.8°C 64% 7.0 mph NW11.3 kmh NW 14.0 mph22.5 kmh 30.15 in1021.0 mb 0.00 in0.0 mm 0.00 in0.0 mm 0.00 in0.0 mm
01:30 PM 61.3°F16.3°C 49.8°F9.9°C 66% Calm Calm 17.0 mph27.4 kmh 30.14 in1020.7 mb 0.00 in0.0 mm 0.00 in0.0 mm 0.00 in0.0 mm
02:00 PM 61.2°F16.2°C 48.4°F9.1°C 63% 4.0 mph WNW6.4 kmh WNW 13.0 mph20.9 kmh 30.15 in1021.0 mb 0.00 in0.0 mm 0.00 in0.0 mm 0.00 in0.0 mm
02:30 PM 61.5°F16.4°C 50.0°F10.0°C 66% 6.0 mph NW9.7 kmh NW 9.0 mph14.5 kmh 30.15 in1021.0 mb 0.00 in0.0 mm 0.00 in0.0 mm 0.00 in0.0 mm
03:00 PM 61.6°F16.4°C 49.7°F9.8°C 65% Calm Calm 9.0 mph14.5 kmh 30.16 in1021.3 mb 0.00 in0.0 mm 0.00 in0.0 mm 0.00 in0.0 mm
03:30 PM 61.3°F16.3°C 49.8°F9.9°C 66% Calm Calm 9.0 mph14.5 kmh 30.17 in1021.7 mb 0.00 in0.0 mm 0.00 in0.0 mm 0.00 in0.0 mm
04:00 PM 61.1°F16.2°C 49.2°F9.6°C 65% Calm Calm 11.0 mph17.7 kmh 30.17 in1021.7 mb 0.00 in0.0 mm 0.00 in0.0 mm 0.00 in0.0 mm
04:30 PM 60.2°F15.7°C 47.9°F8.8°C 64% 4.0 mph W6.4 kmh W 12.0 mph19.3 kmh 30.18 in1022.0 mb 0.00 in0.0 mm 0.00 in0.0 mm 0.00 in0.0 mm
05:00 PM 59.5°F15.3°C 48.5°F9.2°C 67% Calm Calm 8.0 mph12.9 kmh 30.19 in1022.4 mb 0.00 in0.0 mm 0.00 in0.0 mm 0.00 in0.0 mm
05:30 PM 58.8°F14.9°C 49.0°F9.4°C 70% Calm Calm 8.0 mph12.9 kmh 30.20 in1022.7 mb 0.00 in0.0 mm 0.00 in0.0 mm 0.00 in0.0 mm
06:00 PM 57.9°F14.4°C 48.5°F9.2°C 71% Calm Calm -- 30.21 in1023.0 mb 0.00 in0.0 mm 0.00 in0.0 mm 0.00 in0.0 mm
06:30 PM 56.3°F13.5°C 48.8°F9.3°C 76% Calm Calm -- 30.22 in1023.4 mb 0.00 in0.0 mm 0.00 in0.0 mm 0.00 in0.0 mm
07:00 PM 54.7°F12.6°C 49.3°F9.6°C 82% Calm Calm -- 30.22 in1023.4 mb 0.00 in0.0 mm 0.00 in0.0 mm 0.00 in0.0 mm
07:30 PM 53.6°F12.0°C 49.5°F9.7°C 86% Calm Calm -- 30.23 in1023.7 mb 0.00 in0.0 mm 0.00 in0.0 mm 0.00 in0.0 mm
08:00 PM 53.1°F11.7°C 49.0°F9.4°C 86% Calm Calm -- 30.24 in1024.0 mb 0.00 in0.0 mm 0.00 in0.0 mm 0.00 in0.0 mm
08:30 PM 52.5°F11.4°C 48.7°F9.3°C 87% Calm Calm -- 30.25 in1024.4 mb 0.00 in0.0 mm 0.00 in0.0 mm 0.00 in0.0 mm
09:00 PM 51.7°F10.9°C 48.2°F9.0°C 88% Calm Calm -- 30.25 in1024.4 mb 0.00 in0.0 mm 0.00 in0.0 mm 0.00 in0.0 mm
09:30 PM 50.9°F10.5°C 47.7°F8.7°C 89% Calm Calm -- 30.25 in1024.4 mb 0.00 in0.0 mm 0.00 in0.0 mm 0.00 in0.0 mm
10:00 PM 50.4°F10.2°C 47.5°F8.6°C 90% Calm Calm -- 30.26 in1024.7 mb 0.00 in0.0 mm 0.00 in0.0 mm 0.00 in0.0 mm
10:30 PM 50.3°F10.2°C 47.4°F8.6°C 90% Calm Calm -- 30.25 in1024.4 mb 0.00 in0.0 mm 0.00 in0.0 mm 0.00 in0.0 mm
11:00 PM 50.3°F10.2°C 47.7°F8.7°C 91% Calm Calm -- 30.26 in1024.7 mb 0.00 in0.0 mm 0.00 in0.0 mm 0.00 in0.0 mm
11:30 PM 50.1°F10.1°C 47.5°F8.6°C 91% Calm Calm -- 30.26 in1024.7 mb 0.00 in0.0 mm 0.00 in0.0 mm 0.00 in0.0 mm